< < Back
Terminal Aerodrome Forecast


Current Version              Previous Versions:   1  2  3  4  5  6  7  8  9  

Terminal Aerodrome Forecast

535
FTUS44 KMOB 251700
TAFMOB
TAF
KMOB 251720Z 2518/2618 36011G16KT P6SM SKC
     FM260300 VRB03KT P6SM SKC=

Latest METAR

980
SAUS80 KWBC 252100
MTRMOB
METAR KMOB 252056Z 02010KT 10SM CLR 26/12 A3005 RMK AO2 SLP174 T02610117
56018


USA.gov is the U.S. government's official web portal to all federal, state and local government web resources and services.